createdAt,value
2017-09-13T00:02:21.433Z,6.17
2017-09-13T00:04:48.826Z,7.97
2017-09-13T00:07:16.215Z,7.57
2017-09-13T00:09:43.609Z,7.87
2017-09-13T00:12:11.051Z,8.13
2017-09-13T00:14:38.448Z,9.53
2017-09-13T00:17:05.827Z,9.40
2017-09-13T00:19:33.225Z,9.53
2017-09-13T00:22:00.605Z,8.13
2017-09-13T00:24:28.029Z,6.50
2017-09-13T00:26:55.411Z,6.27
2017-09-13T00:29:22.813Z,7.37
2017-09-13T00:31:50.199Z,8.60
2017-09-13T00:34:17.578Z,8.63
2017-09-13T00:36:44.974Z,9.10
2017-09-13T00:39:12.370Z,9.00
2017-09-13T00:41:39.750Z,8.53
2017-09-13T00:44:07.147Z,8.30
2017-09-13T00:46:34.536Z,9.90
2017-09-13T00:49:01.915Z,9.07
2017-09-13T00:51:29.309Z,8.83
2017-09-13T00:53:56.783Z,9.30
2017-09-13T00:56:24.174Z,9.00
2017-09-13T00:58:51.594Z,9.10
2017-09-13T01:01:18.987Z,9.70
2017-09-13T01:03:46.413Z,7.30
2017-09-13T01:06:13.799Z,7.67
2017-09-13T01:08:41.186Z,10.50
2017-09-13T01:11:08.582Z,8.33
2017-09-13T01:13:35.962Z,9.93
2017-09-13T01:16:03.354Z,10.20
2017-09-13T01:18:30.742Z,9.13
2017-09-13T01:20:58.192Z,7.53
2017-09-13T01:23:25.575Z,8.70
2017-09-13T01:25:52.979Z,10.00
2017-09-13T01:28:20.459Z,9.27
2017-09-13T01:30:47.945Z,8.53
2017-09-13T01:33:15.329Z,7.87
2017-09-13T01:35:42.715Z,8.00
2017-09-13T01:38:10.106Z,8.80
2017-09-13T01:40:37.490Z,7.90
2017-09-13T01:43:04.889Z,7.80
2017-09-13T01:45:32.274Z,7.20
2017-09-13T01:48:00.427Z,6.70
2017-09-13T01:50:27.817Z,8.93
2017-09-13T01:52:55.204Z,8.97
2017-09-13T01:55:22.690Z,9.27
2017-09-13T01:57:50.079Z,8.90
2017-09-13T02:00:17.474Z,8.77
2017-09-13T02:02:44.954Z,8.40
2017-09-13T02:05:12.349Z,8.50
2017-09-13T02:07:39.739Z,8.40
2017-09-13T02:10:07.122Z,7.10
2017-09-13T02:12:34.524Z,8.00
2017-09-13T02:15:01.902Z,7.13
2017-09-13T02:17:29.294Z,6.53
2017-09-13T02:19:56.679Z,7.70
2017-09-13T02:22:24.077Z,6.20
2017-09-13T02:24:51.555Z,6.23
2017-09-13T02:27:18.947Z,5.07
2017-09-13T02:29:46.334Z,5.87
2017-09-13T02:32:13.723Z,5.00
2017-09-13T02:34:41.110Z,4.60
2017-09-13T02:37:08.497Z,4.13
2017-09-13T02:39:35.882Z,4.23
2017-09-13T02:42:03.265Z,3.97
2017-09-13T02:44:30.650Z,3.80
2017-09-13T02:46:58.046Z,3.03
2017-09-13T02:49:25.444Z,4.73
2017-09-13T02:51:52.831Z,3.67
2017-09-13T02:54:20.315Z,3.20
2017-09-13T02:56:47.698Z,2.80
2017-09-13T02:59:15.090Z,3.40
2017-09-13T03:01:42.474Z,3.97
2017-09-13T03:04:09.882Z,2.70
2017-09-13T03:06:37.262Z,3.57
2017-09-13T03:09:04.650Z,2.60
2017-09-13T03:11:32.035Z,3.67
2017-09-13T03:13:59.429Z,3.30
2017-09-13T03:16:26.815Z,3.50
2017-09-13T03:18:54.295Z,3.17
2017-09-13T03:21:21.675Z,3.73
2017-09-13T03:23:49.083Z,2.60
2017-09-13T03:26:16.475Z,3.00
2017-09-13T03:28:43.864Z,2.90
2017-09-13T03:31:11.248Z,2.93
2017-09-13T03:33:38.684Z,3.07
2017-09-13T03:36:06.066Z,3.43
2017-09-13T03:38:33.451Z,3.37
2017-09-13T03:41:00.865Z,4.00
2017-09-13T03:43:28.242Z,3.17
2017-09-13T03:45:55.630Z,3.23
2017-09-13T03:48:23.039Z,3.57
2017-09-13T03:50:50.486Z,2.93
2017-09-13T03:53:17.942Z,3.30
2017-09-13T03:55:45.404Z,3.60
2017-09-13T03:58:12.794Z,3.07
2017-09-13T04:00:40.183Z,2.73
2017-09-13T04:03:07.575Z,4.03
2017-09-13T04:05:34.967Z,3.40
2017-09-13T04:08:02.383Z,2.77
2017-09-13T04:10:29.775Z,3.40
2017-09-13T04:12:57.165Z,3.27
2017-09-13T04:15:24.560Z,2.80
2017-09-13T04:17:51.947Z,3.17
2017-09-13T04:20:19.415Z,3.33
2017-09-13T04:22:46.798Z,3.40
2017-09-13T04:25:14.181Z,3.50
2017-09-13T04:27:41.570Z,2.70
2017-09-13T04:30:08.950Z,3.40
2017-09-13T04:32:36.431Z,3.80
2017-09-13T04:35:03.816Z,3.63
2017-09-13T04:37:31.213Z,3.50
2017-09-13T04:39:58.594Z,3.40
2017-09-13T04:42:25.991Z,4.10
2017-09-13T04:44:53.389Z,4.30
2017-09-13T04:47:20.780Z,4.40
2017-09-13T04:49:48.172Z,4.70
2017-09-13T04:52:15.588Z,4.63
2017-09-13T04:54:42.966Z,5.07
2017-09-13T04:57:10.367Z,4.27
2017-09-13T04:59:37.758Z,3.33
2017-09-13T05:02:05.151Z,4.00
2017-09-13T05:04:32.537Z,3.73
2017-09-13T05:06:59.935Z,3.83
2017-09-13T05:09:27.327Z,4.30
2017-09-13T05:11:54.716Z,4.50
2017-09-13T05:14:22.094Z,5.10
2017-09-13T05:16:49.474Z,4.40
2017-09-13T05:21:47.868Z,5.00
2017-09-13T05:24:15.267Z,4.80
2017-09-13T05:26:42.659Z,5.50
2017-09-13T05:29:10.052Z,4.23
2017-09-13T05:31:37.442Z,4.83
2017-09-13T05:34:04.839Z,5.73
2017-09-13T05:36:32.250Z,4.70
2017-09-13T05:38:59.631Z,4.23
2017-09-13T05:41:27.011Z,5.27
2017-09-13T05:43:54.403Z,4.87
2017-09-13T05:46:21.791Z,5.47
2017-09-13T05:48:49.179Z,4.90
2017-09-13T05:51:16.567Z,4.13
2017-09-13T05:53:44.048Z,4.67
2017-09-13T05:56:11.431Z,5.37
2017-09-13T05:58:38.826Z,6.80
2017-09-13T06:01:06.211Z,5.27
2017-09-13T06:03:33.605Z,5.83
2017-09-13T06:06:00.987Z,4.50
2017-09-13T06:08:28.476Z,5.97
2017-09-13T06:10:55.862Z,5.93
2017-09-13T06:13:23.255Z,6.73
2017-09-13T06:15:50.742Z,4.87
2017-09-13T06:18:18.135Z,5.87
2017-09-13T06:20:45.604Z,5.80
2017-09-13T06:23:13.006Z,5.40
2017-09-13T06:25:40.396Z,4.90
2017-09-13T06:28:07.790Z,5.17
2017-09-13T06:30:35.205Z,5.13
2017-09-13T06:33:02.583Z,4.37
2017-09-13T06:35:30.088Z,4.87
2017-09-13T06:37:57.482Z,4.50
2017-09-13T06:40:24.866Z,3.87
2017-09-13T06:42:52.250Z,4.20
2017-09-13T06:45:19.639Z,3.50
2017-09-13T06:47:47.026Z,3.63
2017-09-13T06:50:14.415Z,4.03
2017-09-13T06:52:41.804Z,2.70
2017-09-13T06:55:09.295Z,3.00
2017-09-13T06:57:36.743Z,3.70
2017-09-13T07:00:04.140Z,2.80
2017-09-13T07:02:31.529Z,3.77
2017-09-13T07:04:58.912Z,2.87
2017-09-13T07:07:26.291Z,2.70
2017-09-13T07:09:53.674Z,2.30
2017-09-13T07:12:21.062Z,2.27
2017-09-13T07:14:48.455Z,2.43
2017-09-13T07:17:15.834Z,2.27
2017-09-13T07:19:43.226Z,2.70
2017-09-13T07:22:10.603Z,2.77
2017-09-13T07:24:38.053Z,2.23
2017-09-13T07:27:05.442Z,2.63
2017-09-13T07:29:32.831Z,2.20
2017-09-13T07:32:00.215Z,1.77
2017-09-13T07:34:27.604Z,1.80
2017-09-13T07:36:54.996Z,1.80
2017-09-13T07:39:22.380Z,1.70
2017-09-13T07:41:49.783Z,1.43
2017-09-13T07:44:17.171Z,1.73
2017-09-13T07:46:44.560Z,1.93
2017-09-13T07:49:11.938Z,1.80
2017-09-13T07:51:39.331Z,1.37
2017-09-13T07:54:06.719Z,1.33
2017-09-13T07:56:34.114Z,1.90
2017-09-13T07:59:01.522Z,1.20
2017-09-13T08:01:28.914Z,1.43
2017-09-13T08:03:56.307Z,1.37
2017-09-13T08:06:23.695Z,1.40
2017-09-13T08:08:51.070Z,1.30
2017-09-13T08:11:18.458Z,1.10
2017-09-13T08:13:45.847Z,1.43
2017-09-13T08:16:13.235Z,1.47
2017-09-13T08:18:40.672Z,1.10
2017-09-13T08:21:08.058Z,1.37
2017-09-13T08:23:35.447Z,1.50
2017-09-13T08:26:02.843Z,1.10
2017-09-13T08:28:30.223Z,1.33
2017-09-13T08:30:57.619Z,0.80
2017-09-13T08:33:25.006Z,0.83
2017-09-13T08:35:52.390Z,1.00
2017-09-13T08:38:19.778Z,0.83
2017-09-13T08:40:47.170Z,1.50
2017-09-13T08:43:14.560Z,1.40
2017-09-13T08:45:41.947Z,0.90
2017-09-13T08:48:09.344Z,1.80
2017-09-13T08:50:36.723Z,1.63
2017-09-13T08:53:04.115Z,1.90
2017-09-13T08:55:31.513Z,1.43
2017-09-13T08:57:58.955Z,1.90
2017-09-13T09:00:26.351Z,2.07
2017-09-13T09:02:53.750Z,1.70
2017-09-13T09:05:21.145Z,2.33
2017-09-13T09:07:48.536Z,2.07
2017-09-13T09:10:15.914Z,3.00
2017-09-13T09:12:43.304Z,2.27
2017-09-13T09:15:10.683Z,2.10
2017-09-13T09:17:38.079Z,2.57
2017-09-13T09:20:05.558Z,2.80
2017-09-13T09:22:32.942Z,2.30
2017-09-13T09:25:00.329Z,2.70
2017-09-13T09:27:27.739Z,3.17
2017-09-13T09:29:55.158Z,3.50
2017-09-13T09:32:22.543Z,2.83
2017-09-13T09:34:49.934Z,2.73
2017-09-13T09:37:17.323Z,2.97
2017-09-13T09:39:44.810Z,3.47
2017-09-13T09:42:12.201Z,2.77
2017-09-13T09:44:39.617Z,3.00
2017-09-13T09:47:07.071Z,4.60
2017-09-13T09:49:34.458Z,2.47
2017-09-13T09:52:01.846Z,2.43
2017-09-13T09:54:29.248Z,1.90
2017-09-13T09:56:56.619Z,2.03
2017-09-13T09:59:24.019Z,2.80
2017-09-13T10:01:51.413Z,2.60
2017-09-13T10:04:18.798Z,1.90
2017-09-13T10:06:46.183Z,2.03
2017-09-13T10:09:13.667Z,2.33
2017-09-13T10:11:41.054Z,2.90
2017-09-13T10:14:08.446Z,2.50
2017-09-13T10:16:35.835Z,2.20
2017-09-13T10:19:03.222Z,2.73
2017-09-13T10:21:30.610Z,4.83
2017-09-13T10:23:58.002Z,1.80
2017-09-13T10:26:25.395Z,2.10
2017-09-13T10:28:52.791Z,2.50
2017-09-13T10:31:20.268Z,2.80
2017-09-13T10:33:47.668Z,2.10
2017-09-13T10:36:15.059Z,2.40
2017-09-13T10:38:44.435Z,2.27
2017-09-13T10:41:11.821Z,2.87
2017-09-13T10:43:39.212Z,3.27
2017-09-13T10:46:06.595Z,3.20
2017-09-13T10:48:33.982Z,1.93
2017-09-13T10:51:01.367Z,2.07
2017-09-13T10:53:28.760Z,2.80
2017-09-13T10:55:56.146Z,2.87
2017-09-13T10:58:23.623Z,2.00
2017-09-13T11:00:51.014Z,2.30
2017-09-13T11:03:18.399Z,2.90
2017-09-13T11:05:45.792Z,1.67
2017-09-13T11:08:13.179Z,2.70
2017-09-13T11:10:40.579Z,2.43
2017-09-13T11:13:07.955Z,1.77
2017-09-13T11:15:35.347Z,2.23
2017-09-13T11:18:02.731Z,2.50
2017-09-13T11:20:30.190Z,2.10
2017-09-13T11:22:57.578Z,2.07
2017-09-13T11:25:24.972Z,3.10
2017-09-13T11:27:52.352Z,1.93
2017-09-13T11:30:19.747Z,1.30
2017-09-13T11:32:47.132Z,1.67
2017-09-13T11:35:14.531Z,1.83
2017-09-13T11:37:41.919Z,1.77
2017-09-13T11:40:09.311Z,1.40
2017-09-13T11:42:36.703Z,1.73
2017-09-13T11:45:04.095Z,0.97
2017-09-13T11:47:31.478Z,1.70
2017-09-13T11:49:58.866Z,1.67
2017-09-13T11:52:26.270Z,1.77
2017-09-13T11:54:53.654Z,1.40
2017-09-13T11:57:21.034Z,1.90
2017-09-13T11:59:48.428Z,2.20
2017-09-13T12:02:15.815Z,1.57
2017-09-13T12:04:43.223Z,1.67
2017-09-13T12:07:10.617Z,1.77
2017-09-13T12:09:38.002Z,1.90
2017-09-13T12:12:05.383Z,1.63
2017-09-13T12:14:32.776Z,2.17
2017-09-13T12:17:00.155Z,2.03
2017-09-13T12:19:27.548Z,1.70
2017-09-13T12:21:54.935Z,2.40
2017-09-13T12:24:22.327Z,1.53
2017-09-13T12:26:49.709Z,1.70
2017-09-13T12:29:17.105Z,1.80
2017-09-13T12:31:44.493Z,3.00
2017-09-13T12:34:11.892Z,1.50
2017-09-13T12:36:39.272Z,1.40
2017-09-13T12:39:06.656Z,1.30
2017-09-13T12:41:34.052Z,1.87
2017-09-13T12:44:01.440Z,1.67
2017-09-13T12:46:28.835Z,1.20
2017-09-13T12:48:56.218Z,2.17
2017-09-13T12:51:23.606Z,1.77
2017-09-13T12:53:50.990Z,1.60
2017-09-13T12:56:18.378Z,1.50
2017-09-13T12:58:45.785Z,1.33
2017-09-13T13:01:13.189Z,1.80
2017-09-13T13:03:40.568Z,1.70
2017-09-13T13:06:07.964Z,1.73
2017-09-13T13:08:35.340Z,1.40
2017-09-13T13:11:02.760Z,2.03
2017-09-13T13:13:30.147Z,2.00
2017-09-13T13:15:57.547Z,1.40
2017-09-13T13:18:24.933Z,2.17
2017-09-13T13:20:52.316Z,1.40
2017-09-13T13:23:19.706Z,0.90
2017-09-13T13:25:47.093Z,1.93
2017-09-13T13:28:14.475Z,0.90
2017-09-13T13:30:41.855Z,1.63
2017-09-13T13:33:09.263Z,1.30
2017-09-13T13:35:36.644Z,1.30
2017-09-13T13:38:04.034Z,1.10
2017-09-13T13:40:31.424Z,1.30
2017-09-13T13:42:58.807Z,1.40
2017-09-13T13:45:26.199Z,2.27
2017-09-13T13:47:53.592Z,1.17
2017-09-13T13:50:21.036Z,1.50
2017-09-13T13:52:48.491Z,1.50
2017-09-13T13:55:15.951Z,1.80
2017-09-13T13:57:43.347Z,2.07
2017-09-13T14:00:10.761Z,1.40
2017-09-13T14:02:38.155Z,1.20
2017-09-13T14:05:05.541Z,1.47
2017-09-13T14:07:32.936Z,1.10
2017-09-13T14:10:00.312Z,1.17
2017-09-13T14:12:27.704Z,1.53
2017-09-13T14:14:55.095Z,1.57
2017-09-13T14:17:22.482Z,1.37
2017-09-13T14:19:49.901Z,1.70
2017-09-13T14:22:17.274Z,1.83
2017-09-13T14:24:44.651Z,1.27
2017-09-13T14:27:12.039Z,2.10
2017-09-13T14:29:39.427Z,1.00
2017-09-13T14:32:06.811Z,1.33
2017-09-13T14:34:34.204Z,1.10
2017-09-13T14:37:01.591Z,1.13
2017-09-13T14:39:28.991Z,1.10
2017-09-13T14:41:56.374Z,2.47
2017-09-13T14:44:23.759Z,1.87
2017-09-13T14:46:51.155Z,1.17
2017-09-13T14:49:18.550Z,1.17
2017-09-13T14:51:45.940Z,1.53
2017-09-13T14:54:13.340Z,1.20
2017-09-13T14:56:40.722Z,1.90
2017-09-13T14:59:08.111Z,1.83
2017-09-13T15:01:35.532Z,1.13
2017-09-13T15:04:02.931Z,1.30
2017-09-13T15:06:30.312Z,1.17
2017-09-13T15:08:57.820Z,1.93
2017-09-13T15:11:25.203Z,0.97
2017-09-13T15:13:52.587Z,1.50
2017-09-13T15:16:19.978Z,2.17
2017-09-13T15:18:47.383Z,1.17
2017-09-13T15:21:14.766Z,1.20
2017-09-13T15:23:42.152Z,1.20
2017-09-13T15:26:09.542Z,1.10
2017-09-13T15:28:36.935Z,1.40
2017-09-13T15:31:04.329Z,1.07
2017-09-13T15:33:31.711Z,1.40
2017-09-13T15:35:59.103Z,1.40
2017-09-13T15:38:26.492Z,1.30
2017-09-13T15:40:53.880Z,1.30
2017-09-13T15:43:21.263Z,1.50
2017-09-13T15:45:48.654Z,1.53
2017-09-13T15:48:16.034Z,1.27
2017-09-13T15:50:43.427Z,1.50
2017-09-13T15:53:10.811Z,1.30
2017-09-13T15:55:38.212Z,1.50
2017-09-13T15:58:05.590Z,1.30
2017-09-13T16:00:32.992Z,1.30
2017-09-13T16:03:00.374Z,1.50
2017-09-13T16:05:27.764Z,1.50
2017-09-13T16:07:55.150Z,1.50
2017-09-13T16:10:22.546Z,1.60
2017-09-13T16:12:49.930Z,1.33
2017-09-13T16:15:17.330Z,1.20
2017-09-13T16:17:44.714Z,1.20
2017-09-13T16:20:12.099Z,1.40
2017-09-13T16:22:39.488Z,1.13
2017-09-13T16:25:06.879Z,1.03
2017-09-13T16:27:34.294Z,1.17
2017-09-13T16:30:01.684Z,1.20
2017-09-13T16:32:29.078Z,1.10
2017-09-13T16:34:56.488Z,1.67
2017-09-13T16:37:23.879Z,1.50
2017-09-13T16:39:51.272Z,1.20
2017-09-13T16:42:18.727Z,1.60
2017-09-13T16:44:46.107Z,1.23
2017-09-13T16:47:13.498Z,0.90
2017-09-13T16:49:40.880Z,1.17
2017-09-13T16:52:08.280Z,1.60
2017-09-13T16:54:35.658Z,0.93
2017-09-13T16:57:03.052Z,1.33
2017-09-13T16:59:30.438Z,1.50
2017-09-13T17:01:57.823Z,1.37
2017-09-13T17:04:25.208Z,1.40
2017-09-13T17:06:52.616Z,1.40
2017-09-13T17:09:19.991Z,1.80
2017-09-13T17:11:47.386Z,1.53
2017-09-13T17:14:14.783Z,1.67
2017-09-13T17:16:42.169Z,1.30
2017-09-13T17:19:09.554Z,1.37
2017-09-13T17:21:36.939Z,1.90
2017-09-13T17:24:04.336Z,1.90
2017-09-13T17:26:31.730Z,1.40
2017-09-13T17:28:59.189Z,1.27
2017-09-13T17:31:26.561Z,1.23
2017-09-13T17:33:53.951Z,2.37
2017-09-13T17:36:21.346Z,1.60
2017-09-13T17:38:48.738Z,1.37
2017-09-13T17:41:16.125Z,1.43
2017-09-13T17:43:43.519Z,1.60
2017-09-13T17:46:10.902Z,1.70
2017-09-13T17:48:38.299Z,1.20
2017-09-13T17:51:05.678Z,1.90
2017-09-13T17:53:33.071Z,1.10
2017-09-13T17:56:00.456Z,1.20
2017-09-13T17:58:27.839Z,1.17
2017-09-13T18:00:55.225Z,1.80
2017-09-13T18:03:22.602Z,1.50
2017-09-13T18:05:49.993Z,1.57
2017-09-13T18:08:17.375Z,1.53
2017-09-13T18:10:44.763Z,1.77
2017-09-13T18:13:12.148Z,1.27
2017-09-13T18:15:39.551Z,1.20
2017-09-13T18:18:07.030Z,1.43
2017-09-13T18:20:34.491Z,1.80
2017-09-13T18:23:01.958Z,1.43
2017-09-13T18:25:29.354Z,1.40
2017-09-13T18:27:56.763Z,1.37
2017-09-13T18:30:24.170Z,1.67
2017-09-13T18:32:51.558Z,1.20
2017-09-13T18:35:19.040Z,1.40
2017-09-13T18:37:46.411Z,1.93
2017-09-13T18:40:13.814Z,1.53
2017-09-13T18:42:41.202Z,1.20
2017-09-13T18:45:08.576Z,1.43
2017-09-13T18:47:35.972Z,1.10
2017-09-13T18:50:03.359Z,1.23
2017-09-13T18:52:30.755Z,1.30
2017-09-13T18:54:58.155Z,0.90
2017-09-13T18:57:25.560Z,1.20
2017-09-13T18:59:52.931Z,2.20
2017-09-13T19:02:20.338Z,1.13
2017-09-13T19:04:47.743Z,1.60
2017-09-13T19:07:15.136Z,1.37
2017-09-13T19:09:42.521Z,1.30
2017-09-13T19:12:09.911Z,1.80
2017-09-13T19:14:37.290Z,1.20
2017-09-13T19:17:04.686Z,1.37
2017-09-13T19:19:32.064Z,1.03
2017-09-13T19:21:59.451Z,1.10
2017-09-13T19:24:26.844Z,1.43
2017-09-13T19:26:54.235Z,1.30
2017-09-13T19:29:21.616Z,1.50
2017-09-13T19:31:49.008Z,1.23
2017-09-13T19:34:16.387Z,0.90
2017-09-13T19:36:43.804Z,1.20
2017-09-13T19:39:11.199Z,1.30
2017-09-13T19:41:38.615Z,1.33
2017-09-13T19:44:06.017Z,1.47
2017-09-13T19:46:33.395Z,1.40
2017-09-13T19:49:00.782Z,0.93
2017-09-13T19:51:28.168Z,1.30
2017-09-13T19:53:55.563Z,1.40
2017-09-13T19:56:22.943Z,1.10
2017-09-13T19:58:50.341Z,1.53
2017-09-13T20:01:17.730Z,1.33
2017-09-13T20:03:45.214Z,1.47
2017-09-13T20:06:12.595Z,1.77
2017-09-13T20:08:39.983Z,1.47
2017-09-13T20:11:07.368Z,1.37
2017-09-13T20:13:34.757Z,1.00
2017-09-13T20:16:02.147Z,1.33
2017-09-13T20:18:29.535Z,1.37
2017-09-13T20:20:56.910Z,1.10
2017-09-13T20:23:24.312Z,0.87
2017-09-13T20:25:51.691Z,1.23
2017-09-13T20:28:19.179Z,1.83
2017-09-13T20:30:46.562Z,1.17
2017-09-13T20:33:13.959Z,1.50
2017-09-13T20:35:41.342Z,1.70
2017-09-13T20:38:08.719Z,1.10
2017-09-13T20:40:36.102Z,1.30
2017-09-13T20:43:03.482Z,1.00
2017-09-13T20:45:30.958Z,0.90
2017-09-13T20:47:58.338Z,1.00
2017-09-13T20:50:25.726Z,1.33
2017-09-13T20:52:53.108Z,1.80
2017-09-13T20:55:20.503Z,1.43
2017-09-13T20:57:47.885Z,1.20
2017-09-13T21:00:15.274Z,1.13
2017-09-13T21:02:42.663Z,1.70
2017-09-13T21:05:10.052Z,1.13
2017-09-13T21:07:37.430Z,1.13
2017-09-13T21:10:04.814Z,1.30
2017-09-13T21:12:32.207Z,1.50
2017-09-13T21:14:59.596Z,1.00
2017-09-13T21:17:26.985Z,1.00
2017-09-13T21:19:54.375Z,1.83
2017-09-13T21:22:21.909Z,1.23
2017-09-13T21:24:49.287Z,1.37
2017-09-13T21:27:16.676Z,1.60
2017-09-13T21:29:44.072Z,1.17
2017-09-13T21:32:11.449Z,1.00
2017-09-13T21:34:38.872Z,1.00
2017-09-13T21:37:06.256Z,1.17
2017-09-13T21:39:33.676Z,1.50
2017-09-13T21:42:01.068Z,1.00
2017-09-13T21:44:28.451Z,1.57
2017-09-13T21:46:55.847Z,1.10
2017-09-13T21:49:23.227Z,1.40
2017-09-13T21:51:50.615Z,1.67
2017-09-13T21:54:18.004Z,1.43
2017-09-13T21:56:45.404Z,1.50
2017-09-13T21:59:12.792Z,1.20
2017-09-13T22:01:40.178Z,1.03
2017-09-13T22:04:07.564Z,1.30
2017-09-13T22:06:34.961Z,1.30
2017-09-13T22:09:02.344Z,1.00
2017-09-13T22:11:29.799Z,1.00
2017-09-13T22:13:57.183Z,0.80
2017-09-13T22:16:24.579Z,1.30
2017-09-13T22:18:51.962Z,1.30
2017-09-13T22:21:19.362Z,1.50
2017-09-13T22:23:46.743Z,1.30
2017-09-13T22:26:14.138Z,1.10
2017-09-13T22:28:41.524Z,1.00
2017-09-13T22:31:08.906Z,1.10
2017-09-13T22:33:36.298Z,1.57
2017-09-13T22:36:03.703Z,1.27
2017-09-13T22:38:31.107Z,1.13
2017-09-13T22:40:58.560Z,1.30
2017-09-13T22:43:25.947Z,0.90
2017-09-13T22:45:53.335Z,1.20
2017-09-13T22:48:20.731Z,1.13
2017-09-13T22:50:48.110Z,1.80
2017-09-13T22:53:15.507Z,1.10
2017-09-13T22:55:42.895Z,1.00
2017-09-13T22:58:10.282Z,1.00
2017-09-13T23:00:37.662Z,0.80
2017-09-13T23:03:05.055Z,0.90
2017-09-13T23:05:32.438Z,1.00
2017-09-13T23:07:59.836Z,1.03
2017-09-13T23:10:27.206Z,1.33
2017-09-13T23:12:54.594Z,0.93
2017-09-13T23:15:21.979Z,1.33
2017-09-13T23:17:49.370Z,0.90
2017-09-13T23:20:16.758Z,0.93
2017-09-13T23:22:44.139Z,1.70
2017-09-13T23:25:11.524Z,1.00
2017-09-13T23:27:38.913Z,0.80
2017-09-13T23:30:06.303Z,1.43
2017-09-13T23:32:33.687Z,1.10
2017-09-13T23:35:01.078Z,1.27
2017-09-13T23:37:28.463Z,1.43
2017-09-13T23:39:55.860Z,1.20
2017-09-13T23:42:23.239Z,1.33
2017-09-13T23:44:50.630Z,1.40
2017-09-13T23:47:18.011Z,1.40
2017-09-13T23:49:45.394Z,1.23
2017-09-13T23:52:12.783Z,1.10
2017-09-13T23:54:40.163Z,1.60
2017-09-13T23:57:07.549Z,1.33
2017-09-13T23:59:34.949Z,1.07
